Time;durP1;ratioP1;P1;durP2;ratioP2;P2;SDS_P1;SDS_P2;PMS_P1;PMS_P2;Temp;Humidity;BMP_temperature;BMP_pressure;BME280_temperature;BME280_humidity;BME280_pressure;Samples;Min_cycle;Max_cycle;Signal;HPM_P1;HPM_P2
2023/08/24 00:01:42;;;;;;;9.85;8.38;;;;;;;23.90;67.37;65512.75;5070488;28;20282;-50
2023/08/24 00:04:08;;;;;;;14.73;8.60;;;;;;;23.78;68.06;65499.44;5070456;28;20761;-52
2023/08/24 00:06:34;;;;;;;9.25;8.18;;;;;;;23.73;68.19;65493.91;5070493;28;20208;-52
2023/08/24 00:08:59;;;;;;;9.55;8.38;;;;;;;23.66;68.49;65483.56;5052308;28;20203;-53
2023/08/24 00:11:25;;;;;;;9.68;8.15;;;;;;;23.62;68.26;65479.69;5070277;28;20200;-52
2023/08/24 00:13:51;;;;;;;8.95;7.82;;;;;;;23.58;68.28;65475.28;5070109;28;20209;-52
2023/08/24 00:16:20;;;;;;;9.02;8.18;;;;;;;23.52;68.53;65471.19;5070314;28;20212;-52
2023/08/24 00:18:46;;;;;;;10.07;7.85;;;;;;;23.58;67.89;65477.28;5070504;28;20205;-52
2023/08/24 00:21:22;;;;;;;9.65;8.52;;;;;;;23.58;68.04;65475.28;5070444;28;20262;-52
2023/08/24 00:23:48;;;;;;;9.32;8.25;;;;;;;23.44;68.36;65459.19;5070107;28;20224;-52
2023/08/24 00:26:16;;;;;;;8.95;8.05;;;;;;;23.45;68.63;65463.44;5069914;28;20282;-51
2023/08/24 00:28:42;;;;;;;9.38;8.30;;;;;;;23.54;68.07;65470.28;5070147;28;20250;-52
2023/08/24 00:31:08;;;;;;;9.35;8.23;;;;;;;23.47;68.97;65465.09;5070212;28;20200;-52
2023/08/24 00:33:33;;;;;;;10.10;8.15;;;;;;;23.51;68.72;65470.09;5070108;28;20246;-52
2023/08/24 00:36:00;;;;;;;8.75;7.85;;;;;;;23.32;69.37;65449.03;5069916;28;20614;-52
2023/08/24 00:38:26;;;;;;;10.63;8.15;;;;;;;23.34;69.73;65451.81;5069839;28;20201;-51
2023/08/24 00:40:52;;;;;;;10.90;8.85;;;;;;;23.49;68.78;65470.47;5069744;28;20248;-51
2023/08/24 00:43:22;;;;;;;9.32;8.43;;;;;;;23.54;68.53;65470.28;5069653;28;20229;-52
2023/08/24 00:45:47;;;;;;;9.40;8.40;;;;;;;23.52;69.26;65468.06;5069954;28;20196;-53
2023/08/24 00:48:13;;;;;;;9.57;7.97;;;;;;;23.51;69.37;65469.53;5070056;28;20234;-56
2023/08/24 00:50:38;;;;;;;12.15;8.95;;;;;;;23.56;69.30;65475.06;5051845;28;20269;-53
2023/08/24 00:53:04;;;;;;;9.35;8.45;;;;;;;23.58;69.85;65477.28;5069890;28;20217;-54
2023/08/24 00:55:29;;;;;;;9.27;8.35;;;;;;;23.78;69.21;65497.44;5051772;28;20276;-52
2023/08/24 00:57:56;;;;;;;9.02;8.13;;;;;;;23.81;68.67;65500.78;5069539;28;20604;-57
2023/08/24 01:00:22;;;;;;;8.60;7.70;;;;;;;23.66;69.74;65486.72;5069604;28;20219;-56
2023/08/24 01:02:48;;;;;;;10.18;7.95;;;;;;;23.57;70.27;65479.31;5069919;28;20220;-52
2023/08/24 01:05:14;;;;;;;9.98;8.60;;;;;;;23.67;70.28;65484.69;5069555;28;20204;-52
2023/08/24 01:07:40;;;;;;;9.20;8.30;;;;;;;23.68;70.38;65488.38;5069208;28;20235;-52
2023/08/24 01:10:06;;;;;;;11.95;8.38;;;;;;;23.83;70.06;65507.56;5069732;28;20217;-52
2023/08/24 01:12:44;;;;;;;8.90;8.10;;;;;;;23.70;69.17;65493.72;5069287;28;20251;-52
2023/08/24 01:15:16;;;;;;;9.85;8.48;;;;;;;23.41;69.25;65461.03;5051520;28;20258;-52
2023/08/24 01:17:47;;;;;;;11.32;8.48;;;;;;;23.25;70.11;65443.84;5069486;28;20224;-53
2023/08/24 01:20:15;;;;;;;9.40;8.00;;;;;;;23.24;70.27;65440.16;5069725;28;20254;-54
2023/08/24 01:23:04;;;;;;;9.13;8.18;;;;;;;22.99;72.18;65412.44;5051259;28;20205;-54
2023/08/24 01:25:53;;;;;;;8.60;7.70;;;;;;;22.91;72.80;65401.56;5040636;28;20281;-52
2023/08/24 01:28:21;;;;;;;10.88;9.23;;;;;;;22.88;73.32;65400.28;5072885;28;20683;-57
2023/08/24 01:30:47;;;;;;;10.93;8.75;;;;;;;22.73;74.58;65381.09;5072645;28;20240;-53
2023/08/24 01:33:14;;;;;;;9.70;8.55;;;;;;;22.62;76.02;65371.47;5073158;28;20291;-53
2023/08/24 01:35:41;;;;;;;8.95;8.05;;;;;;;22.36;77.96;65343.25;5072811;28;20224;-52
2023/08/24 01:38:07;;;;;;;10.25;8.60;;;;;;;22.46;77.75;65352.28;5054759;28;20212;-52
2023/08/24 01:40:49;;;;;;;10.57;8.95;;;;;;;22.48;78.36;65356.53;5072780;28;20205;-53
2023/08/24 01:43:15;;;;;;;10.35;9.18;;;;;;;22.63;77.72;65373.13;5072512;28;20263;-52
2023/08/24 01:45:44;;;;;;;11.30;8.77;;;;;;;22.47;79.24;65352.84;5072649;28;20204;-54
2023/08/24 01:48:10;;;;;;;10.10;9.00;;;;;;;22.46;78.75;65351.75;5072373;28;20220;-51
2023/08/24 01:50:36;;;;;;;11.15;9.40;;;;;;;22.60;77.75;65367.25;5072681;28;20227;-58
2023/08/24 01:53:03;;;;;;;9.45;8.55;;;;;;;22.53;77.72;65362.03;5072776;28;20209;-61
2023/08/24 01:55:28;;;;;;;9.93;8.93;;;;;;;22.43;77.56;65348.41;5072791;28;20322;-53
2023/08/24 01:57:55;;;;;;;10.30;9.20;;;;;;;22.30;77.69;65336.59;5054524;28;20213;-54
2023/08/24 02:00:21;;;;;;;9.88;8.80;;;;;;;22.12;78.43;65316.69;5072652;28;20195;-57
2023/08/24 02:02:46;;;;;;;10.43;9.00;;;;;;;22.11;78.49;65315.56;5072067;28;20224;-52
2023/08/24 02:05:12;;;;;;;10.45;8.43;;;;;;;22.18;78.01;65320.75;5054293;28;20240;-53
2023/08/24 02:07:39;;;;;;;9.38;8.48;;;;;;;22.18;77.78;65323.31;5079523;22;20233;-52
2023/08/24 02:10:04;;;;;;;11.32;8.65;;;;;;;22.15;78.05;65319.97;5072374;28;20267;-52
2023/08/24 02:12:30;;;;;;;9.52;8.52;;;;;;;22.10;77.95;65317.56;5072262;28;20212;-52
2023/08/24 02:14:56;;;;;;;9.07;8.20;;;;;;;22.13;78.07;65318.31;5072251;28;20199;-52
2023/08/24 02:17:22;;;;;;;10.38;9.27;;;;;;;22.12;78.24;65316.69;5072435;28;20293;-52
2023/08/24 02:19:47;;;;;;;8.73;7.82;;;;;;;22.17;77.78;65322.19;5072177;28;20239;-52
2023/08/24 02:22:12;;;;;;;13.27;8.35;;;;;;;22.23;77.30;65329.41;5071917;28;20791;-52
2023/08/24 02:24:39;;;;;;;10.02;8.93;;;;;;;22.15;77.95;65322.56;5054036;28;20215;-51
2023/08/24 02:27:04;;;;;;;9.52;8.50;;;;;;;22.04;78.41;65307.81;5072069;28;20212;-53
2023/08/24 02:29:30;;;;;;;10.05;8.60;;;;;;;21.95;78.94;65297.84;5072017;28;20295;-53
2023/08/24 02:31:56;;;;;;;9.30;8.40;;;;;;;22.03;78.95;65306.69;5071834;28;20217;-52
2023/08/24 02:34:21;;;;;;;10.25;9.23;;;;;;;21.94;79.04;65296.75;5071826;28;20274;-52
2023/08/24 02:36:47;;;;;;;9.95;8.95;;;;;;;21.93;79.54;65293.06;5071424;28;20212;-52
2023/08/24 02:39:13;;;;;;;10.85;9.02;;;;;;;21.85;79.82;65284.22;5071732;28;20189;-53
2023/08/24 02:41:38;;;;;;;10.88;8.82;;;;;;;21.84;79.68;65283.66;5071816;28;20217;-53
2023/08/24 02:44:05;;;;;;;9.98;8.85;;;;;;;21.85;79.65;65284.78;5071776;28;20213;-52
2023/08/24 02:46:32;;;;;;;9.82;8.93;;;;;;;21.85;79.62;65287.34;5053316;28;20213;-52
2023/08/24 02:48:57;;;;;;;9.63;8.63;;;;;;;22.10;78.21;65317.03;5053673;28;20216;-55
2023/08/24 02:51:23;;;;;;;11.00;8.82;;;;;;;22.10;77.81;65314.47;5071463;28;20619;-52
2023/08/24 02:53:50;;;;;;;9.40;8.50;;;;;;;22.07;78.12;65313.69;5071542;28;20187;-53
2023/08/24 02:56:16;;;;;;;10.35;9.35;;;;;;;22.06;77.61;65313.13;5071366;28;20224;-53
2023/08/24 02:58:41;;;;;;;11.65;8.65;;;;;;;22.08;77.73;65312.25;5071351;28;20212;-53
2023/08/24 03:01:07;;;;;;;11.10;8.80;;;;;;;22.01;78.98;65304.50;5071453;28;20235;-55
2023/08/24 03:03:34;;;;;;;10.50;9.23;;;;;;;22.05;78.63;65306.91;5071475;28;20220;-53
2023/08/24 03:06:06;;;;;;;11.10;9.98;;;;;;;21.97;79.11;65300.63;5071268;28;20275;-57
2023/08/24 03:08:32;;;;;;;9.80;8.80;;;;;;;22.10;78.88;65317.03;5053591;28;20782;-53
2023/08/24 03:11:01;;;;;;;10.85;9.18;;;;;;;22.13;78.74;65320.34;5071095;28;20267;-53
2023/08/24 03:13:27;;;;;;;9.95;8.95;;;;;;;22.14;79.13;65316.31;5071240;28;20197;-53
2023/08/24 03:15:53;;;;;;;10.85;9.10;;;;;;;22.30;78.60;65336.59;5071340;28;20189;-52
2023/08/24 03:18:19;;;;;;;11.05;9.02;;;;;;;22.26;78.83;65330.13;5071144;28;20224;-52
2023/08/24 03:20:46;;;;;;;10.57;8.70;;;;;;;22.37;78.43;65347.47;5071009;28;20204;-54
2023/08/24 03:23:12;;;;;;;11.85;9.02;;;;;;;22.39;78.31;65346.53;5071696;28;20205;-52
2023/08/24 03:25:39;;;;;;;14.13;9.88;;;;;;;22.21;79.25;65327.19;5071408;28;20254;-52
2023/08/24 03:28:07;;;;;;;10.13;9.10;;;;;;;22.02;80.50;65308.72;5052927;28;20314;-52
2023/08/24 03:30:34;;;;;;;10.73;9.40;;;;;;;22.12;80.19;65317.22;5071131;28;20223;-53
2023/08/24 03:33:00;;;;;;;12.45;10.00;;;;;;;22.30;79.46;65334.03;5071382;28;20252;-51
2023/08/24 03:35:26;;;;;;;9.90;8.90;;;;;;;22.42;77.97;65349.88;5070889;28;20204;-52
2023/08/24 03:37:52;;;;;;;11.52;9.35;;;;;;;22.16;79.41;65321.63;5052874;28;20224;-52
2023/08/24 03:40:20;;;;;;;13.25;9.63;;;;;;;21.77;82.65;65278.47;5052767;28;20258;-52
2023/08/24 03:42:48;;;;;;;12.27;9.02;;;;;;;21.86;82.38;65287.88;5052506;28;20311;-53
2023/08/24 03:45:13;;;;;;;11.48;10.00;;;;;;;22.07;81.13;65313.69;5052702;28;20287;-53
2023/08/24 03:47:38;;;;;;;13.07;9.60;;;;;;;21.89;82.43;65289.19;5069680;28;20695;-52
2023/08/24 03:50:05;;;;;;;13.15;10.40;;;;;;;21.57;85.13;65256.88;5052821;28;20258;-52
2023/08/24 03:52:31;;;;;;;16.23;10.75;;;;;;;21.46;86.78;65244.72;5071055;28;20212;-53
2023/08/24 03:54:57;;;;;;;15.40;10.05;;;;;;;21.45;87.24;65246.16;5070833;28;20593;-53
2023/08/24 03:57:23;;;;;;;11.30;9.98;;;;;;;21.53;87.44;65255.03;5070688;28;20694;-52
2023/08/24 03:59:48;;;;;;;11.88;10.68;;;;;;;21.77;86.34;65279.00;5070547;28;20204;-51
2023/08/24 04:02:14;;;;;;;11.80;10.02;;;;;;;21.86;86.06;65287.88;5052299;28;20217;-52
2023/08/24 04:04:39;;;;;;;14.63;11.90;;;;;;;21.73;87.41;65274.03;5052490;28;20285;-52
2023/08/24 04:07:06;;;;;;;13.00;10.60;;;;;;;21.62;88.62;65261.88;5071110;28;20266;-55
2023/08/24 04:09:32;;;;;;;16.30;11.15;;;;;;;21.91;87.30;65293.44;5052556;28;20216;-52
2023/08/24 04:11:57;;;;;;;13.98;11.68;;;;;;;21.62;89.68;65261.88;5070623;28;20716;-52
2023/08/24 04:14:22;;;;;;;14.73;10.70;;;;;;;21.71;89.71;65272.38;5070309;28;20683;-53
2023/08/24 04:16:48;;;;;;;12.32;10.23;;;;;;;21.94;88.28;65299.31;5070416;28;20667;-53
2023/08/24 04:19:14;;;;;;;13.27;11.73;;;;;;;22.09;87.48;65313.34;5070133;28;20199;-51
2023/08/24 04:21:46;;;;;;;17.90;11.63;;;;;;;21.92;88.54;65294.53;5070176;28;20201;-51
2023/08/24 04:24:15;;;;;;;12.32;11.02;;;;;;;22.05;87.88;65308.91;5070076;28;20212;-53
2023/08/24 04:26:40;;;;;;;12.77;11.43;;;;;;;22.21;87.41;65326.63;5070068;28;20204;-53
2023/08/24 04:29:06;;;;;;;12.15;10.68;;;;;;;22.21;88.22;65324.06;5069995;28;20201;-52
2023/08/24 04:31:31;;;;;;;12.98;10.90;;;;;;;22.27;87.29;65333.25;5070256;28;20229;-53
2023/08/24 04:33:57;;;;;;;13.23;11.30;;;;;;;22.25;89.59;65329.03;5051999;28;20200;-53
2023/08/24 04:36:23;;;;;;;12.40;11.05;;;;;;;22.32;90.38;65336.78;5070126;28;20211;-51
2023/08/24 04:38:48;;;;;;;13.48;11.23;;;;;;;22.51;90.52;65362.41;5070033;28;20219;-52
2023/08/24 04:41:14;;;;;;;12.75;10.35;;;;;;;22.80;89.74;65391.41;5069927;28;20247;-52
2023/08/24 04:43:39;;;;;;;12.88;11.07;;;;;;;23.01;87.42;65412.66;5069794;28;20224;-52
2023/08/24 04:46:05;;;;;;;13.07;11.20;;;;;;;23.32;82.78;65449.59;5069914;28;20212;-54
2023/08/24 04:48:34;;;;;;;14.10;11.80;;;;;;;22.94;82.38;65406.91;5069753;28;20200;-52
2023/08/24 04:51:01;;;;;;;14.75;10.90;;;;;;;22.52;83.33;65360.94;5052195;28;20176;-52
2023/08/24 04:53:28;;;;;;;13.27;11.48;;;;;;;22.39;84.35;65349.69;5069793;28;20205;-52
2023/08/24 04:55:53;;;;;;;14.18;12.70;;;;;;;22.12;85.29;65317.22;5070174;28;20200;-52
2023/08/24 04:58:19;;;;;;;15.95;11.65;;;;;;;21.94;86.48;65294.19;5069920;28;20406;-52
2023/08/24 05:00:45;;;;;;;15.20;11.57;;;;;;;21.78;86.77;65277.00;5054400;28;20228;-52
2023/08/24 05:03:10;;;;;;;11.88;10.45;;;;;;;21.70;84.55;65271.28;5073419;28;20227;-52
2023/08/24 05:05:36;;;;;;;13.43;10.48;;;;;;;21.67;83.67;65270.50;5073448;28;20211;-52
2023/08/24 05:08:06;;;;;;;9.73;8.77;;;;;;;21.63;83.50;65260.94;5073108;28;20216;-52
2023/08/24 05:10:34;;;;;;;10.68;9.57;;;;;;;21.66;83.37;65266.84;5055145;28;20276;-52
2023/08/24 05:13:01;;;;;;;11.50;9.68;;;;;;;21.74;85.25;65275.69;5054838;28;20220;-53
2023/08/24 05:15:27;;;;;;;13.63;10.00;;;;;;;21.91;82.88;65293.44;5073179;28;20201;-53
2023/08/24 05:17:54;;;;;;;13.65;10.07;;;;;;;22.21;79.88;65327.19;5072987;28;20213;-52
2023/08/24 05:20:23;;;;;;;12.05;10.55;;;;;;;22.32;84.08;65338.81;5055094;28;20215;-52
2023/08/24 05:22:48;;;;;;;10.98;9.48;;;;;;;22.71;83.09;65378.88;5073061;28;20220;-53
2023/08/24 05:25:16;;;;;;;13.90;10.07;;;;;;;23.07;83.05;65419.28;5055044;28;20658;-52
2023/08/24 05:27:42;;;;;;;12.85;10.55;;;;;;;23.19;81.60;65434.63;5072874;28;20730;-52
2023/08/24 05:30:08;;;;;;;20.00;12.68;;;;;;;23.34;77.87;65451.81;5073024;28;20209;-52
2023/08/24 05:32:38;;;;;;;39.70;20.20;;;;;;;23.49;76.89;65465.31;5072874;28;20220;-51
2023/08/24 05:35:05;;;;;;;14.50;10.57;;;;;;;23.69;75.58;65489.47;5055732;28;20197;-53
2023/08/24 05:37:32;;;;;;;25.23;15.95;;;;;;;23.76;77.98;65495.22;5073076;28;20277;-52
2023/08/24 05:40:02;;;;;;;14.82;11.45;;;;;;;24.05;70.49;65529.41;5054923;28;20346;-51
2023/08/24 05:42:28;;;;;;;11.70;9.68;;;;;;;23.92;70.57;65512.41;5071535;28;20212;-51
2023/08/24 05:44:53;;;;;;;25.42;15.23;;;;;;;23.61;77.98;65480.63;5073225;28;20181;-51
2023/08/24 05:47:19;;;;;;;19.60;13.65;;;;;;;23.55;79.30;65471.41;5053541;28;20598;-51
2023/08/24 05:49:45;;;;;;;21.20;14.02;;;;;;;23.72;79.46;65490.22;5072445;28;20262;-51
2023/08/24 05:52:11;;;;;;;10.70;9.20;;;;;;;23.96;72.16;65516.81;5072966;28;20224;-55
2023/08/24 05:54:38;;;;;;;18.10;13.15;;;;;;;23.88;77.38;65510.53;5072910;28;20200;-52
2023/08/24 05:57:05;;;;;;;16.65;11.02;;;;;;;23.86;74.46;65505.75;5054562;28;20223;-56
2023/08/24 05:59:34;;;;;;;13.52;10.30;;;;;;;23.84;75.12;65504.09;5072562;28;20201;-52
2023/08/24 06:02:01;;;;;;;14.68;10.48;;;;;;;23.81;74.93;65500.78;5072804;28;20208;-54
2023/08/24 06:04:26;;;;;;;19.48;11.65;;;;;;;24.12;76.63;65537.16;5072442;28;20717;-51
2023/08/24 06:06:52;;;;;;;16.88;11.05;;;;;;;24.41;74.95;65569.34;5072289;28;20212;-52
2023/08/24 06:09:17;;;;;;;16.65;10.98;;;;;;;24.32;72.11;65556.22;5072569;28;20208;-53
2023/08/24 06:11:44;;;;;;;14.10;11.23;;;;;;;24.04;72.41;65526.28;5071643;28;20301;-57
2023/08/24 06:14:09;;;;;;;14.30;9.82;;;;;;;23.96;72.95;65522.53;5072349;28;20563;-52
2023/08/24 06:16:35;;;;;;;11.63;10.43;;;;;;;24.20;73.97;65546.03;5072398;28;20216;-56
2023/08/24 06:19:01;;;;;;;14.82;11.70;;;;;;;24.35;76.37;65559.53;5072411;28;20204;-53
2023/08/24 06:21:26;;;;;;;13.68;11.35;;;;;;;24.50;77.40;65576.19;5072361;28;20602;-53
2023/08/24 06:23:52;;;;;;;20.90;12.10;;;;;;;24.56;72.47;65582.84;5054136;28;20208;-51
2023/08/24 06:26:18;;;;;;;15.35;12.82;;;;;;;24.36;72.27;65561.19;5072354;28;20209;-52
2023/08/24 06:28:45;;;;;;;15.80;13.68;;;;;;;24.33;76.43;65563.03;5072133;28;20189;-52
2023/08/24 06:31:12;;;;;;;18.98;14.18;;;;;;;24.47;71.63;65573.41;5072093;28;20209;-51
2023/08/24 06:33:38;;;;;;;19.23;15.18;;;;;;;24.06;76.87;65530.50;5072217;28;20337;-51
2023/08/24 06:36:05;;;;;;;19.73;14.05;;;;;;;24.06;79.82;65531.06;5072009;28;20277;-55
2023/08/24 06:38:31;;;;;;;19.00;15.23;;;;;;;24.23;79.46;65546.78;5072034;28;20236;-52
2023/08/24 06:41:00;;;;;;;17.08;12.98;;;;;;;24.28;80.24;65554.38;5071935;28;20239;-54
2023/08/24 06:43:26;;;;;;;17.00;14.02;;;;;;;24.47;79.56;65572.84;5053793;28;20209;-55
2023/08/24 06:45:52;;;;;;;16.48;13.60;;;;;;;24.63;77.88;65591.16;5053941;28;20219;-53
2023/08/24 06:48:18;;;;;;;24.38;16.70;;;;;;;24.61;76.32;65588.94;5071671;28;20667;-51
2023/08/24 06:50:46;;;;;;;16.85;14.68;;;;;;;24.68;76.30;65596.72;5071843;28;20207;-52
2023/08/24 06:53:11;;;;;;;17.50;14.32;;;;;;;24.68;76.75;65596.16;5053550;28;20598;-53
2023/08/24 06:55:39;;;;;;;22.98;14.35;;;;;;;24.78;77.35;65607.25;5071649;28;20209;-51
2023/08/24 06:58:05;;;;;;;20.00;15.60;;;;;;;24.80;74.69;65610.03;5053530;28;20209;-52
2023/08/24 07:00:31;;;;;;;16.33;13.77;;;;;;;24.96;76.90;65627.22;5053674;28;20205;-52
2023/08/24 07:02:57;;;;;;;19.42;15.95;;;;;;;25.22;73.41;65658.09;5071381;28;20262;-53
2023/08/24 07:05:23;;;;;;;16.70;13.07;;;;;;;25.17;75.95;65649.97;5053573;28;20288;-53
2023/08/24 07:07:53;;;;;;;16.45;13.80;;;;;;;25.12;76.10;65644.97;5071374;28;20705;-51
2023/08/24 07:10:19;;;;;;;18.55;14.30;;;;;;;25.21;75.44;65654.41;5071276;28;20193;-53
2023/08/24 07:12:46;;;;;;;20.70;15.18;;;;;;;25.34;73.26;65668.84;5071444;28;20311;-52
2023/08/24 07:15:13;;;;;;;17.88;13.05;;;;;;;25.18;74.81;65653.66;5071748;28;20342;-52
2023/08/24 07:17:38;;;;;;;17.90;15.40;;;;;;;25.22;74.86;65655.53;5053168;28;20216;-53
2023/08/24 07:20:23;;;;;;;17.35;14.32;;;;;;;25.30;74.43;65664.41;5071243;28;20201;-52
2023/08/24 07:22:50;;;;;;;21.88;16.15;;;;;;;25.48;72.02;65684.97;5070115;28;20204;-53
2023/08/24 07:25:17;;;;;;;20.75;15.10;;;;;;;25.47;72.16;65683.31;5071353;28;20200;-52
2023/08/24 07:27:42;;;;;;;21.25;15.60;;;;;;;25.41;74.25;65679.75;5070752;28;20422;-52
2023/08/24 07:30:09;;;;;;;17.33;14.52;;;;;;;25.50;72.76;65686.63;5071117;28;20726;-52
2023/08/24 07:32:35;;;;;;;14.68;12.60;;;;;;;25.66;71.91;65706.97;5071025;28;20710;-50
2023/08/24 07:35:02;;;;;;;17.83;14.10;;;;;;;25.85;70.25;65728.06;5070988;28;20204;-52
2023/08/24 07:37:28;;;;;;;18.23;14.68;;;;;;;25.97;67.51;65738.81;5070826;28;20232;-52
2023/08/24 07:39:53;;;;;;;21.48;15.63;;;;;;;25.98;68.85;65739.91;5071022;28;20204;-54
2023/08/24 07:42:21;;;;;;;16.98;12.98;;;;;;;26.24;70.44;65768.81;5071035;28;20324;-52
2023/08/24 07:44:48;;;;;;;21.33;15.18;;;;;;;26.27;68.99;65771.59;5036691;28;20208;-57
2023/08/24 07:47:13;;;;;;;18.50;15.65;;;;;;;26.33;69.67;65778.81;5070957;28;20227;-53
2023/08/24 07:49:44;;;;;;;22.77;16.00;;;;;;;26.28;68.57;65770.13;5052979;28;20287;-52
2023/08/24 07:52:11;;;;;;;26.63;19.33;;;;;;;26.50;68.75;65797.16;5071035;28;20213;-52
2023/08/24 07:54:38;;;;;;;21.17;15.65;;;;;;;26.56;66.09;65803.81;5070728;28;20303;-52
2023/08/24 07:57:05;;;;;;;17.00;13.52;;;;;;;26.72;67.42;65821.06;5071161;28;20254;-52
2023/08/24 07:59:31;;;;;;;17.60;13.50;;;;;;;26.83;67.13;65833.81;5070725;28;20200;-52
2023/08/24 08:01:56;;;;;;;15.90;13.05;;;;;;;26.81;64.83;65831.03;5070987;28;20699;-56
2023/08/24 08:04:22;;;;;;;14.65;12.93;;;;;;;26.78;63.93;65828.28;5070494;28;20223;-52
2023/08/24 08:06:55;;;;;;;16.77;13.13;;;;;;;26.85;61.79;65835.50;5070833;28;20750;-53
2023/08/24 08:09:21;;;;;;;15.32;13.73;;;;;;;26.89;62.17;65842.53;5052432;28;20244;-54
2023/08/24 08:11:47;;;;;;;16.02;14.32;;;;;;;26.85;62.91;65836.06;5070375;28;20216;-52
2023/08/24 08:14:12;;;;;;;19.42;13.65;;;;;;;26.80;65.19;65830.50;5070361;28;20360;-54
2023/08/24 08:16:37;;;;;;;16.95;14.10;;;;;;;26.94;64.75;65848.66;5070213;28;20264;-52
2023/08/24 08:19:03;;;;;;;17.10;14.40;;;;;;;27.10;61.63;65863.28;5070044;28;20581;-52
2023/08/24 08:21:30;;;;;;;17.73;14.70;;;;;;;27.16;62.07;65872.53;5070166;28;20240;-57
2023/08/24 08:23:55;;;;;;;18.45;13.93;;;;;;;27.23;61.80;65878.28;5070213;28;20213;-51
2023/08/24 08:26:21;;;;;;;15.68;13.80;;;;;;;27.36;61.35;65892.22;5070056;28;20200;-52
2023/08/24 08:28:47;;;;;;;16.73;13.15;;;;;;;27.41;60.74;65897.78;5070150;28;20287;-53
2023/08/24 08:31:12;;;;;;;15.15;13.13;;;;;;;27.43;59.77;65900.00;5070120;28;20604;-52
2023/08/24 08:33:38;;;;;;;22.80;17.45;;;;;;;27.60;59.55;65918.91;5069338;28;20581;-55
2023/08/24 08:36:04;;;;;;;13.48;12.05;;;;;;;27.73;56.46;65932.81;5069911;28;20242;-51
2023/08/24 08:38:29;;;;;;;18.95;13.15;;;;;;;27.59;56.72;65917.81;5070008;28;20208;-52
2023/08/24 08:41:04;;;;;;;17.70;12.45;;;;;;;27.66;58.30;65925.00;5069854;28;20200;-52
2023/08/24 08:43:30;;;;;;;15.07;11.25;;;;;;;27.76;56.82;65933.53;5069712;28;20313;-51
2023/08/24 08:45:57;;;;;;;14.38;11.20;;;;;;;27.99;54.56;65962.31;5051894;28;20291;-52
2023/08/24 08:48:25;;;;;;;13.73;11.40;;;;;;;27.95;53.84;65954.69;5069819;28;20196;-52
2023/08/24 08:50:53;;;;;;;16.77;11.43;;;;;;;27.94;53.17;65956.72;5070067;28;20197;-52
2023/08/24 08:53:22;;;;;;;15.02;11.13;;;;;;;28.07;53.36;65968.63;5035509;28;20304;-52
2023/08/24 08:55:53;;;;;;;13.52;11.80;;;;;;;28.15;53.26;65976.94;5069793;28;20195;-52
2023/08/24 08:58:19;;;;;;;15.00;10.35;;;;;;;28.34;53.35;66000.13;5069680;28;20201;-52
2023/08/24 09:00:46;;;;;;;14.05;10.77;;;;;;;28.45;51.06;66012.94;5069793;28;20207;-51
2023/08/24 09:03:15;;;;;;;12.40;11.15;;;;;;;28.61;52.28;66025.00;5069871;28;20216;-52
2023/08/24 09:05:41;;;;;;;14.80;11.40;;;;;;;28.82;50.21;66051.53;5069726;28;20197;-52
2023/08/24 09:08:07;;;;;;;13.73;11.38;;;;;;;28.88;50.03;66060.81;5069888;28;20216;-53
2023/08/24 09:10:32;;;;;;;15.32;10.73;;;;;;;28.95;49.83;66070.63;5069770;28;20281;-56
2023/08/24 09:12:58;;;;;;;15.00;11.40;;;;;;;29.39;49.37;66117.06;5069735;28;20593;-52
2023/08/24 09:15:26;;;;;;;14.63;11.45;;;;;;;29.67;50.09;66150.31;5069727;28;20200;-53
2023/08/24 09:17:53;;;;;;;14.90;13.25;;;;;;;29.70;48.91;66149.00;5069381;28;20224;-53
2023/08/24 09:20:20;;;;;;;14.55;11.15;;;;;;;29.86;48.72;66168.34;5069630;28;20276;-52
2023/08/24 09:22:46;;;;;;;15.10;12.15;;;;;;;29.99;47.11;66182.81;5051183;28;20216;-52
2023/08/24 09:25:13;;;;;;;12.57;11.35;;;;;;;30.11;47.24;66196.19;5050453;28;20201;-52
2023/08/24 09:27:38;;;;;;;17.17;13.57;;;;;;;30.25;47.66;66209.75;5050293;28;20219;-58
2023/08/24 09:30:08;;;;;;;13.30;11.55;;;;;;;30.34;47.20;66219.25;5068294;28;20555;-53
2023/08/24 09:32:35;;;;;;;13.80;12.32;;;;;;;30.53;47.61;66243.00;5069221;28;20315;-52
2023/08/24 09:35:08;;;;;;;13.40;12.15;;;;;;;30.62;45.98;66253.59;5049813;28;20211;-52
2023/08/24 09:37:35;;;;;;;13.55;11.57;;;;;;;30.77;46.43;66266.59;5069358;28;20267;-56
2023/08/24 09:40:07;;;;;;;12.90;11.52;;;;;;;30.78;45.59;66268.28;5069329;28;20193;-52
2023/08/24 09:42:38;;;;;;;17.65;12.98;;;;;;;30.91;45.95;66282.81;5051438;28;20221;-55
2023/08/24 09:45:07;;;;;;;13.82;12.35;;;;;;;30.84;45.42;66277.63;5069390;28;20245;-53
2023/08/24 09:47:34;;;;;;;14.13;12.65;;;;;;;30.86;44.99;66276.69;5073044;28;20278;-53
2023/08/24 09:50:00;;;;;;;14.23;12.52;;;;;;;31.13;44.69;66309.94;5054390;28;20262;-52
2023/08/24 09:52:32;;;;;;;14.05;12.60;;;;;;;31.18;44.70;66315.53;5072317;28;20212;-53
2023/08/24 09:55:04;;;;;;;19.58;16.70;;;;;;;31.45;44.57;66343.06;5072501;28;20205;-52
2023/08/24 09:57:36;;;;;;;17.48;15.65;;;;;;;32.06;43.17;66407.41;5072501;28;20236;-56
2023/08/24 10:00:06;;;;;;;15.38;12.32;;;;;;;32.58;42.73;66468.13;5054264;28;20204;-51
2023/08/24 10:02:36;;;;;;;14.85;13.10;;;;;;;32.84;42.02;66496.59;5054070;28;20208;-52
2023/08/24 10:05:03;;;;;;;16.20;14.32;;;;;;;33.10;41.37;66523.03;5072223;28;20196;-52
2023/08/24 10:07:30;;;;;;;14.73;12.43;;;;;;;32.62;40.76;66472.00;5071960;28;20205;-52
2023/08/24 10:10:03;;;;;;;14.82;12.45;;;;;;;33.12;40.68;66529.94;5072272;28;20286;-52
2023/08/24 10:12:36;;;;;;;16.02;13.13;;;;;;;33.17;40.12;66535.53;5054313;28;20216;-52
2023/08/24 10:15:03;;;;;;;15.50;11.43;;;;;;;33.58;40.61;66578.72;5071687;28;20177;-54
2023/08/24 10:17:35;;;;;;;16.67;15.02;;;;;;;33.63;39.27;66584.31;5070755;28;20204;-53
2023/08/24 10:20:05;;;;;;;16.20;14.50;;;;;;;33.63;38.92;66584.31;5070670;28;20215;-52
2023/08/24 10:22:34;;;;;;;13.30;11.90;;;;;;;34.22;38.51;66647.13;5070319;28;20306;-52
2023/08/24 10:24:59;;;;;;;14.95;11.30;;;;;;;34.48;38.06;66682.00;5053777;28;20203;-53
2023/08/24 10:27:27;;;;;;;12.82;11.52;;;;;;;34.47;37.61;66678.25;5071802;28;20208;-52
2023/08/24 10:29:53;;;;;;;14.70;10.93;;;;;;;33.80;36.44;66605.94;5071949;28;20193;-56
2023/08/24 10:32:21;;;;;;;12.65;10.10;;;;;;;33.79;36.49;66599.59;5071673;28;20221;-53
2023/08/24 10:34:47;;;;;;;11.43;10.23;;;;;;;33.98;37.04;66626.06;5071738;28;20301;-53
2023/08/24 10:37:12;;;;;;;12.93;11.50;;;;;;;33.97;37.79;66622.34;5053566;28;20220;-52
2023/08/24 10:39:45;;;;;;;16.02;12.23;;;;;;;33.78;37.50;66598.47;5071433;28;20197;-53
2023/08/24 10:42:11;;;;;;;21.92;13.13;;;;;;;33.09;38.50;66521.91;5071527;28;20201;-53
2023/08/24 10:44:40;;;;;;;39.95;28.90;;;;;;;32.78;39.38;66490.44;5071253;28;20232;-53
2023/08/24 10:47:07;;;;;;;19.00;16.25;;;;;;;33.03;37.84;66515.19;5071336;28;20273;-52
2023/08/24 10:49:34;;;;;;;13.25;11.95;;;;;;;32.89;38.78;66505.34;5071485;28;20250;-52
2023/08/24 10:52:21;;;;;;;12.65;11.35;;;;;;;33.09;38.70;66524.53;5053181;28;20216;-53
2023/08/24 10:54:54;;;;;;;13.60;11.93;;;;;;;32.81;39.86;66490.59;5071283;28;20255;-57
2023/08/24 10:57:30;;;;;;;15.18;13.02;;;;;;;32.48;40.31;66456.38;5052981;28;20300;-54
2023/08/24 11:00:05;;;;;;;16.60;14.93;;;;;;;32.22;41.21;66428.44;5071228;28;20196;-53
2023/08/24 11:02:46;;;;;;;13.50;12.20;;;;;;;32.09;40.95;66410.78;5070775;28;20252;-56
2023/08/24 11:05:17;;;;;;;17.52;15.65;;;;;;;31.64;42.00;66363.13;5071126;28;20193;-53
2023/08/24 11:07:57;;;;;;;20.52;16.15;;;;;;;31.40;43.15;66340.09;5071181;28;20216;-52
2023/08/24 11:10:34;;;;;;;14.82;12.00;;;;;;;31.48;43.00;66348.44;5071163;28;20200;-52
2023/08/24 11:13:19;;;;;;;15.32;12.65;;;;;;;31.31;44.59;66327.41;5071161;28;20740;-56
2023/08/24 11:15:54;;;;;;;17.20;15.30;;;;;;;30.87;45.42;66280.94;5053780;28;20177;-52
2023/08/24 11:18:29;;;;;;;14.07;11.32;;;;;;;30.77;45.96;66272.38;5071148;28;20219;-54
2023/08/24 11:21:02;;;;;;;15.45;11.07;;;;;;;30.93;46.33;66285.03;5070716;28;20637;-52
2023/08/24 11:23:29;;;;;;;15.18;11.95;;;;;;;31.37;46.35;66336.72;5052835;28;20217;-57